createdAt,value
2022-08-07T00:01:01.171Z,33.40
2022-08-07T00:03:52.004Z,33.40
2022-08-07T00:06:29.489Z,33.40
2022-08-07T00:09:16.278Z,33.40
2022-08-07T00:11:55.407Z,33.20
2022-08-07T00:14:31.724Z,33.20
2022-08-07T00:17:05.039Z,33.20
2022-08-07T00:20:01.288Z,33.20
2022-08-07T00:22:35.101Z,33.20
2022-08-07T00:25:11.012Z,33.10
2022-08-07T00:27:52.296Z,33.00
2022-08-07T00:30:27.907Z,33.00
2022-08-07T00:33:02.113Z,32.90
2022-08-07T00:35:33.647Z,32.80
2022-08-07T00:38:08.009Z,32.80
2022-08-07T00:40:40.842Z,32.70
2022-08-07T00:44:01.617Z,32.60
2022-08-07T00:46:05.353Z,32.50
2022-08-07T00:48:42.324Z,32.50
2022-08-07T00:51:13.954Z,32.30
2022-08-07T00:53:50.670Z,32.30
2022-08-07T00:56:30.230Z,32.30
2022-08-07T00:59:05.457Z,32.20
2022-08-07T01:01:44.057Z,32.20
2022-08-07T01:04:24.849Z,32.10
2022-08-07T01:06:56.917Z,32.00
2022-08-07T01:10:04.730Z,32.00
2022-08-07T01:12:29.943Z,31.90
2022-08-07T01:15:04.006Z,31.80
2022-08-07T01:17:35.706Z,31.70
2022-08-07T01:20:16.729Z,31.60
2022-08-07T01:23:12.301Z,31.50
2022-08-07T01:25:55.855Z,31.40
2022-08-07T01:28:28.085Z,31.40
2022-08-07T01:30:59.816Z,31.40
2022-08-07T01:33:55.926Z,31.30
2022-08-07T01:36:33.863Z,31.20
2022-08-07T01:39:09.775Z,31.20
2022-08-07T01:42:07.592Z,31.20
2022-08-07T01:44:35.455Z,31.10
2022-08-07T01:47:14.506Z,31.00
2022-08-07T01:49:58.118Z,30.90
2022-08-07T01:52:34.087Z,30.80
2022-08-07T01:55:07.725Z,30.70
2022-08-07T01:58:06.026Z,30.80
2022-08-07T02:00:49.214Z,30.70
2022-08-07T02:03:25.029Z,30.60
2022-08-07T02:06:20.053Z,30.50
2022-08-07T02:08:56.995Z,30.50
2022-08-07T02:11:31.073Z,30.50
2022-08-07T02:14:40.931Z,30.30
2022-08-07T02:17:16.638Z,30.20
2022-08-07T02:20:05.628Z,30.20
2022-08-07T02:22:41.335Z,30.00
2022-08-07T02:25:17.418Z,29.90
2022-08-07T02:27:53.013Z,29.90
2022-08-07T02:30:24.057Z,29.80
2022-08-07T02:33:03.983Z,29.70
2022-08-07T02:36:30.777Z,29.70
2022-08-07T02:38:37.999Z,29.50
2022-08-07T02:41:10.846Z,29.50
2022-08-07T02:43:47.742Z,29.40
2022-08-07T02:46:22.200Z,29.30
2022-08-07T02:48:56.539Z,29.30
2022-08-07T02:51:49.962Z,29.20
2022-08-07T02:54:25.253Z,29.00
2022-08-07T02:56:58.919Z,28.90
2022-08-07T02:59:34.122Z,28.80
2022-08-07T03:02:06.048Z,28.70
2022-08-07T03:04:40.016Z,28.70
2022-08-07T03:07:11.608Z,28.60
2022-08-07T03:09:48.238Z,28.50
2022-08-07T03:12:22.211Z,28.30
2022-08-07T03:15:07.613Z,28.20
2022-08-07T03:17:53.974Z,28.10
2022-08-07T03:20:26.313Z,28.00
2022-08-07T03:22:57.748Z,27.90
2022-08-07T03:25:32.499Z,27.80
2022-08-07T03:28:38.492Z,27.70
2022-08-07T03:31:23.751Z,27.60
2022-08-07T03:33:58.370Z,27.40
2022-08-07T03:36:32.232Z,27.30
2022-08-07T03:39:08.915Z,27.20
2022-08-07T03:41:42.496Z,27.10
2022-08-07T03:44:21.617Z,27.00
2022-08-07T03:47:13.693Z,26.90
2022-08-07T03:49:51.921Z,26.80
2022-08-07T03:52:27.139Z,26.70
2022-08-07T03:55:07.077Z,26.70
2022-08-07T03:58:34.691Z,26.60
2022-08-07T04:00:33.568Z,26.50
2022-08-07T04:03:09.925Z,26.40
2022-08-07T04:05:42.558Z,26.30
2022-08-07T04:08:18.465Z,26.20
2022-08-07T04:10:54.260Z,26.10
2022-08-07T04:14:10.406Z,26.20
2022-08-07T04:16:34.749Z,26.10
2022-08-07T04:19:12.599Z,26.00
2022-08-07T04:21:58.826Z,25.90
2022-08-07T04:24:38.852Z,25.90
2022-08-07T04:27:20.426Z,25.80
2022-08-07T04:30:02.360Z,25.70
2022-08-07T04:32:35.652Z,25.70
2022-08-07T04:35:11.350Z,25.60
2022-08-07T04:38:00.907Z,25.60
2022-08-07T04:40:33.199Z,25.60
2022-08-07T04:43:04.237Z,25.60
2022-08-07T04:46:00.969Z,25.60
2022-08-07T04:48:40.389Z,25.50
2022-08-07T04:51:28.060Z,25.40
2022-08-07T04:54:06.947Z,25.40
2022-08-07T04:58:10.640Z,25.30
2022-08-07T05:00:12.490Z,25.30
2022-08-07T05:02:45.526Z,25.30
2022-08-07T05:05:53.020Z,25.20
2022-08-07T05:08:45.458Z,25.20
2022-08-07T05:11:16.633Z,25.10
2022-08-07T05:14:53.336Z,25.10
2022-08-07T05:16:53.009Z,25.00
2022-08-07T05:19:44.176Z,25.00
2022-08-07T05:22:26.711Z,25.00
2022-08-07T05:25:00.630Z,25.00
2022-08-07T05:28:16.014Z,25.00
2022-08-07T05:30:32.755Z,24.90
2022-08-07T05:33:06.642Z,24.80
2022-08-07T05:35:42.056Z,24.80
2022-08-07T05:38:59.384Z,24.70
2022-08-07T05:41:14.245Z,24.60
2022-08-07T05:44:06.774Z,24.50
2022-08-07T05:46:41.060Z,24.40
2022-08-07T05:49:14.295Z,24.30
2022-08-07T05:51:47.081Z,24.20
2022-08-07T05:54:31.026Z,24.20
2022-08-07T05:57:12.154Z,24.10
2022-08-07T05:59:57.493Z,24.00
2022-08-07T06:02:32.506Z,24.00
2022-08-07T06:05:07.368Z,23.90
2022-08-07T06:08:09.084Z,23.80
2022-08-07T06:10:33.234Z,23.70
2022-08-07T06:13:05.807Z,23.70
2022-08-07T06:15:45.336Z,23.70
2022-08-07T06:18:16.245Z,23.60
2022-08-07T06:20:50.916Z,23.50
2022-08-07T06:24:38.479Z,23.50
2022-08-07T06:26:30.113Z,23.50
2022-08-07T06:29:02.477Z,23.50
2022-08-07T06:31:47.008Z,23.50
2022-08-07T06:34:21.586Z,23.40
2022-08-07T06:36:52.544Z,23.40
2022-08-07T06:40:17.983Z,23.30
2022-08-07T06:42:33.013Z,23.20
2022-08-07T06:45:11.934Z,23.10
2022-08-07T06:47:58.676Z,23.10
2022-08-07T06:50:31.204Z,23.10
2022-08-07T06:53:04.238Z,23.10
2022-08-07T06:55:53.859Z,23.20
2022-08-07T06:58:28.794Z,23.10
2022-08-07T07:01:03.058Z,23.00
2022-08-07T07:03:48.708Z,23.00
2022-08-07T07:06:27.109Z,22.90
2022-08-07T07:08:58.181Z,22.80
2022-08-07T07:12:07.823Z,22.80
2022-08-07T07:14:23.435Z,22.70
2022-08-07T07:16:59.552Z,22.60
2022-08-07T07:19:57.774Z,22.60
2022-08-07T07:22:36.300Z,22.50
2022-08-07T07:26:32.444Z,22.40
2022-08-07T07:28:42.078Z,22.30
2022-08-07T07:31:21.896Z,22.20
2022-08-07T07:34:01.352Z,22.10
2022-08-07T07:36:32.909Z,22.10
2022-08-07T07:39:05.783Z,22.00
2022-08-07T07:41:50.868Z,22.00
2022-08-07T07:44:34.193Z,21.90
2022-08-07T07:47:14.302Z,21.90
2022-08-07T07:50:33.160Z,21.80
2022-08-07T07:52:49.516Z,21.70
2022-08-07T07:55:21.980Z,21.70
2022-08-07T07:57:58.455Z,21.60
2022-08-07T08:00:34.219Z,21.50
2022-08-07T08:03:09.048Z,21.40
2022-08-07T08:05:54.950Z,21.30
2022-08-07T08:08:35.555Z,21.30
2022-08-07T08:11:16.508Z,21.20
2022-08-07T08:13:53.316Z,21.20
2022-08-07T08:16:32.015Z,21.10
2022-08-07T08:19:17.706Z,21.00
2022-08-07T08:22:19.217Z,20.90
2022-08-07T08:25:42.539Z,20.90
2022-08-07T08:28:24.156Z,20.70
2022-08-07T08:31:16.074Z,20.70
2022-08-07T08:33:55.421Z,20.60
2022-08-07T08:36:30.738Z,20.50
2022-08-07T08:39:06.526Z,20.40
2022-08-07T08:41:58.735Z,20.40
2022-08-07T08:44:44.318Z,20.40
2022-08-07T08:47:25.079Z,20.40
2022-08-07T08:50:06.057Z,20.40
2022-08-07T08:52:53.838Z,20.40
2022-08-07T08:55:54.482Z,20.30
2022-08-07T08:58:35.170Z,20.20
2022-08-07T09:01:14.689Z,20.20
2022-08-07T09:03:56.899Z,20.10
2022-08-07T09:06:47.794Z,20.10
2022-08-07T09:09:47.541Z,20.10
2022-08-07T09:12:53.243Z,20.00
2022-08-07T09:16:22.378Z,19.90
2022-08-07T09:18:58.573Z,19.90
2022-08-07T09:22:09.894Z,19.90
2022-08-07T09:24:59.072Z,19.80
2022-08-07T09:28:00.436Z,19.70
2022-08-07T09:30:54.297Z,19.70
2022-08-07T09:33:56.982Z,19.60
2022-08-07T09:36:35.806Z,19.60
2022-08-07T09:39:54.017Z,19.50
2022-08-07T09:42:37.294Z,19.50
2022-08-07T09:47:27.604Z,19.50
2022-08-07T09:48:39.906Z,19.60
2022-08-07T09:52:15.720Z,19.50
2022-08-07T09:54:41.541Z,19.50
2022-08-07T09:57:46.771Z,19.40
2022-08-07T10:00:24.409Z,19.40
2022-08-07T10:04:05.216Z,19.30
2022-08-07T10:07:01.659Z,19.30
2022-08-07T10:10:03.007Z,19.20
2022-08-07T10:12:53.603Z,19.20
2022-08-07T10:15:45.009Z,19.10
2022-08-07T10:18:53.192Z,19.10
2022-08-07T10:22:15.134Z,19.00
2022-08-07T10:24:47.139Z,18.90
2022-08-07T10:27:46.010Z,18.90
2022-08-07T10:30:20.429Z,19.00
2022-08-07T10:34:06.389Z,18.90
2022-08-07T10:36:31.004Z,18.80
2022-08-07T10:39:22.693Z,18.70
2022-08-07T10:42:21.318Z,18.70
2022-08-07T10:45:09.671Z,18.60
2022-08-07T10:47:53.648Z,18.60
2022-08-07T10:50:32.934Z,18.50
2022-08-07T10:53:12.164Z,18.50
2022-08-07T10:55:56.085Z,18.40
2022-08-07T10:58:59.362Z,18.30
2022-08-07T11:01:51.963Z,18.30
2022-08-07T11:04:47.142Z,18.20
2022-08-07T11:08:00.438Z,18.10
2022-08-07T11:10:32.506Z,18.10
2022-08-07T11:14:42.545Z,18.00
2022-08-07T11:16:22.012Z,18.00
2022-08-07T11:19:08.162Z,17.90
2022-08-07T11:21:53.493Z,17.80
2022-08-07T11:24:31.318Z,17.80
2022-08-07T11:27:13.620Z,17.80
2022-08-07T11:30:18.005Z,17.70
2022-08-07T11:32:50.551Z,17.70
2022-08-07T11:35:27.310Z,17.60
2022-08-07T11:38:17.347Z,17.60
2022-08-07T11:41:01.993Z,17.50
2022-08-07T11:43:54.675Z,17.40
2022-08-07T11:46:51.204Z,17.40
2022-08-07T11:50:11.250Z,17.30
2022-08-07T11:52:45.496Z,17.40
2022-08-07T11:56:15.706Z,17.30
2022-08-07T11:58:33.809Z,17.30
2022-08-07T12:01:22.058Z,17.20
2022-08-07T12:04:20.396Z,17.20
2022-08-07T12:07:02.392Z,17.10
2022-08-07T12:09:46.210Z,17.10
2022-08-07T12:12:22.103Z,17.10
2022-08-07T12:15:04.450Z,17.10
2022-08-07T12:17:59.354Z,17.10
2022-08-07T12:20:37.856Z,17.00
2022-08-07T12:24:05.455Z,17.00
2022-08-07T12:26:41.947Z,16.90
2022-08-07T12:29:38.921Z,16.90
2022-08-07T12:32:20.273Z,16.80
2022-08-07T12:34:56.046Z,16.70
2022-08-07T12:38:11.374Z,16.70
2022-08-07T12:40:47.687Z,16.70
2022-08-07T12:44:02.729Z,16.60
2022-08-07T12:46:31.972Z,16.60
2022-08-07T12:49:39.836Z,16.50
2022-08-07T12:52:18.047Z,16.50
2022-08-07T12:55:03.493Z,16.50
2022-08-07T12:58:01.367Z,16.50
2022-08-07T13:00:49.432Z,16.50
2022-08-07T13:03:54.855Z,16.50
2022-08-07T13:07:01.389Z,16.40
2022-08-07T13:10:28.830Z,16.40
2022-08-07T13:13:04.552Z,16.40
2022-08-07T13:15:59.246Z,16.40
2022-08-07T13:18:39.249Z,16.30
2022-08-07T13:21:35.033Z,16.40
2022-08-07T13:24:18.750Z,16.30
2022-08-07T13:26:55.230Z,16.30
2022-08-07T13:29:34.694Z,16.30
2022-08-07T13:32:31.855Z,16.30
2022-08-07T13:35:08.777Z,16.30
2022-08-07T13:37:58.667Z,16.30
2022-08-07T13:40:42.254Z,16.30
2022-08-07T13:43:17.652Z,16.30
2022-08-07T13:46:21.799Z,16.40
2022-08-07T13:48:59.356Z,16.50
2022-08-07T13:52:04.461Z,16.50
2022-08-07T13:54:30.505Z,16.50
2022-08-07T13:57:10.475Z,16.50
2022-08-07T13:59:49.213Z,16.50
2022-08-07T14:02:33.478Z,16.50
2022-08-07T14:05:18.052Z,16.60
2022-08-07T14:07:59.952Z,16.60
2022-08-07T14:10:41.689Z,16.60
2022-08-07T14:13:19.180Z,16.60
2022-08-07T14:15:57.150Z,16.70
2022-08-07T14:18:34.243Z,16.70
2022-08-07T14:21:20.831Z,16.70
2022-08-07T14:24:06.639Z,16.70
2022-08-07T14:26:50.532Z,16.80
2022-08-07T14:30:07.917Z,16.90
2022-08-07T14:32:19.231Z,17.00
2022-08-07T14:34:52.526Z,17.10
2022-08-07T14:37:38.979Z,17.20
2022-08-07T14:40:27.038Z,17.30
2022-08-07T14:43:57.412Z,17.50
2022-08-07T14:45:56.490Z,17.60
2022-08-07T14:48:33.444Z,18.30
2022-08-07T14:51:15.780Z,19.40
2022-08-07T14:54:05.817Z,21.50
2022-08-07T14:56:43.565Z,24.00
2022-08-07T15:00:03.032Z,26.50
2022-08-07T15:02:31.794Z,28.60
2022-08-07T15:05:19.798Z,29.80
2022-08-07T15:07:52.730Z,30.90
2022-08-07T15:10:27.138Z,31.20
2022-08-07T15:13:11.429Z,31.80
2022-08-07T15:15:52.548Z,32.80
2022-08-07T15:18:36.184Z,33.00
2022-08-07T15:25:13.906Z,34.00
2022-08-07T15:27:15.272Z,34.10
2022-08-07T15:30:06.467Z,34.30
2022-08-07T15:36:02.636Z,34.60
2022-08-07T15:42:43.261Z,34.90
2022-08-07T15:44:23.755Z,34.90
2022-08-07T15:47:03.387Z,35.40
2022-08-07T15:50:06.057Z,35.00
2022-08-07T15:52:33.067Z,35.80
2022-08-07T15:55:08.879Z,36.50
2022-08-07T15:57:48.882Z,36.30
2022-08-07T16:00:31.663Z,36.30
2022-08-07T16:03:22.132Z,36.40
2022-08-07T16:06:03.773Z,36.70
2022-08-07T16:08:38.818Z,37.10
2022-08-07T16:11:26.643Z,37.00
2022-08-07T16:14:09.683Z,37.20
2022-08-07T16:17:00.096Z,36.90
2022-08-07T16:20:00.123Z,37.50
2022-08-07T16:23:05.326Z,38.20
2022-08-07T16:25:57.629Z,37.90
2022-08-07T16:30:06.015Z,37.40
2022-08-07T16:31:57.825Z,37.40
2022-08-07T16:34:41.018Z,37.60
2022-08-07T16:38:11.287Z,38.30
2022-08-07T16:41:24.416Z,38.60
2022-08-07T16:44:46.248Z,38.40
2022-08-07T16:50:48.153Z,38.80
2022-08-07T16:54:06.755Z,39.00
2022-08-07T16:56:53.849Z,39.00
2022-08-07T16:59:46.870Z,39.00
2022-08-07T17:03:04.875Z,39.50
2022-08-07T17:06:30.151Z,39.40
2022-08-07T17:09:10.663Z,39.20
2022-08-07T17:12:04.476Z,39.50
2022-08-07T17:14:57.692Z,39.30
2022-08-07T17:17:46.418Z,38.80
2022-08-07T17:20:31.672Z,38.90
2022-08-07T17:23:13.496Z,38.90
2022-08-07T17:25:57.951Z,39.60
2022-08-07T17:28:38.446Z,40.50
2022-08-07T17:31:17.332Z,40.60
2022-08-07T17:34:18.080Z,39.70
2022-08-07T17:36:58.095Z,40.50
2022-08-07T17:39:57.950Z,40.10
2022-08-07T17:42:59.814Z,39.90
2022-08-07T17:45:38.165Z,40.40
2022-08-07T17:48:14.020Z,40.40
2022-08-07T17:51:01.675Z,39.90
2022-08-07T17:53:59.918Z,39.70
2022-08-07T17:56:35.458Z,39.90
2022-08-07T17:59:17.049Z,40.00
2022-08-07T18:02:00.330Z,40.40
2022-08-07T18:04:37.431Z,40.40
2022-08-07T18:07:32.071Z,40.50
2022-08-07T18:10:32.312Z,40.60
2022-08-07T18:13:30.903Z,40.30
2022-08-07T18:16:33.320Z,40.20
2022-08-07T18:21:03.630Z,40.50
2022-08-07T18:22:32.643Z,40.60
2022-08-07T18:25:24.290Z,40.70
2022-08-07T18:28:35.668Z,40.50
2022-08-07T18:31:11.460Z,40.10
2022-08-07T18:34:37.733Z,40.10
2022-08-07T18:38:57.912Z,40.00
2022-08-07T18:40:42.381Z,40.30
2022-08-07T18:43:37.238Z,40.60
2022-08-07T18:46:25.280Z,40.30
2022-08-07T18:50:19.230Z,40.30
2022-08-07T18:52:38.191Z,40.30
2022-08-07T18:55:42.984Z,39.80
2022-08-07T18:58:43.228Z,40.00
2022-08-07T19:02:19.191Z,40.20
2022-08-07T19:04:57.668Z,40.20
2022-08-07T19:07:35.544Z,40.00
2022-08-07T19:10:21.324Z,40.40
2022-08-07T19:13:10.094Z,40.10
2022-08-07T19:16:04.642Z,40.00
2022-08-07T19:18:46.359Z,40.20
2022-08-07T19:21:43.975Z,40.40
2022-08-07T19:24:31.022Z,40.80
2022-08-07T19:28:29.325Z,40.80
2022-08-07T19:31:04.782Z,40.30
2022-08-07T19:32:59.884Z,39.90
2022-08-07T19:35:34.137Z,39.70
2022-08-07T19:38:15.134Z,39.70
2022-08-07T19:40:52.554Z,39.70
2022-08-07T19:43:50.096Z,39.60
2022-08-07T19:46:20.229Z,39.20
2022-08-07T19:49:03.863Z,39.40
2022-08-07T19:51:51.780Z,39.20
2022-08-07T19:54:35.261Z,38.60
2022-08-07T19:58:01.693Z,38.20
2022-08-07T20:00:27.993Z,38.10
2022-08-07T20:03:05.804Z,38.00
2022-08-07T20:06:02.358Z,38.00
2022-08-07T20:08:35.898Z,38.10
2022-08-07T20:11:12.067Z,37.60
2022-08-07T20:13:50.083Z,37.80
2022-08-07T20:16:34.937Z,37.80
2022-08-07T20:19:10.088Z,37.80
2022-08-07T20:21:48.296Z,37.80
2022-08-07T20:24:28.815Z,38.00
2022-08-07T20:27:04.273Z,38.00
2022-08-07T20:29:48.401Z,37.80
2022-08-07T20:32:26.433Z,37.70
2022-08-07T20:35:15.805Z,37.80
2022-08-07T20:37:57.825Z,37.50
2022-08-07T20:40:34.664Z,37.70
2022-08-07T20:43:09.327Z,37.90
2022-08-07T20:46:26.776Z,37.60
2022-08-07T20:48:38.674Z,37.70
2022-08-07T20:51:30.676Z,37.70
2022-08-07T20:54:09.395Z,37.90
2022-08-07T20:56:50.724Z,37.90
2022-08-07T21:00:05.048Z,38.00
2022-08-07T21:02:34.356Z,38.00
2022-08-07T21:05:10.369Z,38.00
2022-08-07T21:07:49.692Z,37.90
2022-08-07T21:10:25.283Z,38.00
2022-08-07T21:13:05.862Z,38.00
2022-08-07T21:15:40.361Z,38.00
2022-08-07T21:18:41.300Z,38.10
2022-08-07T21:21:18.161Z,38.10
2022-08-07T21:24:10.945Z,38.00
2022-08-07T21:26:52.302Z,38.00
2022-08-07T21:29:30.600Z,38.20
2022-08-07T21:32:48.419Z,38.00
2022-08-07T21:35:05.871Z,38.00
2022-08-07T21:37:58.563Z,38.10
2022-08-07T21:40:38.971Z,37.90
2022-08-07T21:43:16.507Z,37.90
2022-08-07T21:46:10.834Z,37.90
2022-08-07T21:48:57.438Z,37.80
2022-08-07T21:51:51.371Z,37.90
2022-08-07T21:54:32.557Z,38.00
2022-08-07T21:57:31.299Z,38.10
2022-08-07T22:00:22.134Z,38.10
2022-08-07T22:03:03.353Z,37.80
2022-08-07T22:05:48.329Z,37.50
2022-08-07T22:08:25.252Z,37.50
2022-08-07T22:11:07.289Z,37.50
2022-08-07T22:13:52.074Z,37.70
2022-08-07T22:16:43.194Z,37.80
2022-08-07T22:19:29.465Z,37.80
2022-08-07T22:22:17.816Z,37.90
2022-08-07T22:25:03.631Z,37.80
2022-08-07T22:28:20.114Z,37.90
2022-08-07T22:30:51.923Z,37.70
2022-08-07T22:33:52.817Z,37.70
2022-08-07T22:36:31.972Z,37.70
2022-08-07T22:39:07.608Z,37.80
2022-08-07T22:42:03.539Z,37.80
2022-08-07T22:44:41.597Z,37.70
2022-08-07T22:47:53.883Z,37.70
2022-08-07T22:50:56.609Z,37.70
2022-08-07T22:54:07.477Z,37.50
2022-08-07T22:56:50.257Z,37.50
2022-08-07T22:59:45.624Z,37.50
2022-08-07T23:02:51.909Z,37.50
2022-08-07T23:06:10.187Z,37.50
2022-08-07T23:10:00.611Z,37.50
2022-08-07T23:12:08.580Z,37.50
2022-08-07T23:15:02.686Z,37.40
2022-08-07T23:17:48.217Z,37.30
2022-08-07T23:20:40.600Z,37.20
2022-08-07T23:24:06.356Z,37.40
2022-08-07T23:27:15.140Z,37.40
2022-08-07T23:30:39.457Z,37.40
2022-08-07T23:34:21.701Z,37.30
2022-08-07T23:36:29.714Z,37.30
2022-08-07T23:39:09.644Z,37.20
2022-08-07T23:42:05.234Z,37.20
2022-08-07T23:45:00.466Z,37.00
2022-08-07T23:47:49.045Z,37.00
2022-08-07T23:50:31.544Z,37.00
2022-08-07T23:53:17.657Z,36.90
2022-08-07T23:55:59.245Z,37.00
2022-08-07T23:58:42.358Z,36.90
